Time;durP1;ratioP1;P1;durP2;ratioP2;P2;SDS_P1;SDS_P2;PMS_P1;PMS_P2;Temp;Humidity;BMP_temperature;BMP_pressure;BME280_temperature;BME280_humidity;BME280_pressure;Samples;Min_cycle;Max_cycle;Signal;HPM_P1;HPM_P2
2021/10/14 00:00:17;;;;;;;6.53;4.78;;;;;;;9.25;89.42;101490.56;4984174;28;20050;-52
2021/10/14 00:02:44;;;;;;;8.15;5.35;;;;;;;9.25;89.17;101490.56;4990151;28;20049;-53
2021/10/14 00:05:10;;;;;;;7.65;4.93;;;;;;;9.24;89.02;101499.38;4978170;28;20085;-53
2021/10/14 00:07:37;;;;;;;10.68;5.28;;;;;;;9.23;89.48;101499.41;4974607;28;20517;-54
2021/10/14 00:10:05;;;;;;;9.32;5.20;;;;;;;9.24;89.53;101496.75;4980709;28;20038;-54
2021/10/14 00:12:32;;;;;;;6.75;5.13;;;;;;;9.22;89.87;101490.63;4988729;28;20042;-53
2021/10/14 00:14:58;;;;;;;8.43;5.30;;;;;;;9.17;90.20;101481.06;4994086;28;20495;-54
2021/10/14 00:17:26;;;;;;;10.23;5.57;;;;;;;9.18;89.84;101477.50;4983955;28;20066;-53
2021/10/14 00:19:52;;;;;;;6.57;4.97;;;;;;;9.14;90.17;101467.00;4983200;28;20053;-53
2021/10/14 00:22:19;;;;;;;9.25;5.40;;;;;;;9.09;90.41;101460.97;4986027;28;20065;-53
2021/10/14 00:24:45;;;;;;;7.60;5.03;;;;;;;9.08;90.84;101455.75;4992384;28;20038;-52
2021/10/14 00:27:12;;;;;;;8.32;5.25;;;;;;;9.10;90.89;101459.22;4980219;28;20053;-54
2021/10/14 00:29:38;;;;;;;8.45;4.75;;;;;;;9.06;90.79;101468.09;4980817;28;20054;-52
2021/10/14 00:32:05;;;;;;;9.20;5.10;;;;;;;8.92;90.97;101444.66;4985579;28;20046;-53
2021/10/14 00:34:31;;;;;;;7.25;5.20;;;;;;;9.02;91.38;101463.78;4984262;28;20065;-54
2021/10/14 00:36:58;;;;;;;6.35;5.18;;;;;;;9.00;91.78;101452.38;4982357;28;20045;-52
2021/10/14 00:39:24;;;;;;;8.35;5.38;;;;;;;8.99;91.74;101456.81;4987519;28;20064;-53
2021/10/14 00:41:51;;;;;;;8.95;5.35;;;;;;;8.98;91.94;101441.84;4984923;28;20054;-56
2021/10/14 00:44:17;;;;;;;7.70;5.60;;;;;;;8.97;92.08;101444.56;4986232;28;20093;-53
2021/10/14 00:46:55;;;;;;;9.70;5.68;;;;;;;8.97;92.19;101442.75;4995557;28;20101;-56
2021/10/14 00:49:22;;;;;;;7.90;5.55;;;;;;;8.94;92.27;101434.94;4993988;28;20551;-52
2021/10/14 00:51:49;;;;;;;7.93;5.55;;;;;;;8.81;92.43;101415.00;4988861;28;20411;-53
2021/10/14 00:54:19;;;;;;;9.63;5.55;;;;;;;8.94;92.30;101436.69;4992107;28;20364;-53
2021/10/14 00:56:46;;;;;;;;;;;;;;;8.92;92.61;101433.22;4985577;28;20046;-52
2021/10/14 00:59:14;;;;;;;7.35;5.50;;;;;;;8.90;92.76;101427.97;4984872;28;19964;-53
2021/10/14 01:01:40;;;;;;;10.65;5.90;;;;;;;8.90;92.78;101429.75;4988936;28;20054;-54
2021/10/14 01:04:07;;;;;;;7.05;5.10;;;;;;;8.90;93.19;101432.38;4984505;28;20046;-54
2021/10/14 01:06:34;;;;;;;12.05;5.80;;;;;;;8.78;92.72;101413.28;4987220;28;20720;-53
2021/10/14 01:09:00;;;;;;;7.75;5.28;;;;;;;8.90;92.78;101438.53;4990138;28;20550;-53
2021/10/14 01:11:27;;;;;;;11.00;5.57;;;;;;;8.90;92.91;101435.91;4985136;28;20054;-56
2021/10/14 01:13:54;;;;;;;7.45;5.35;;;;;;;8.88;92.82;101432.41;4997328;28;20507;-53
2021/10/14 01:16:20;;;;;;;9.52;6.10;;;;;;;8.87;93.13;101437.75;4995197;28;20112;-53
2021/10/14 01:18:47;;;;;;;9.85;6.13;;;;;;;8.85;93.37;101443.06;4982396;28;20120;-53
2021/10/14 01:21:13;;;;;;;12.07;5.45;;;;;;;8.84;92.93;101429.88;4994062;28;20046;-52
2021/10/14 01:23:40;;;;;;;9.93;5.95;;;;;;;8.85;93.01;101426.34;5000383;28;20052;-54
2021/10/14 01:26:07;;;;;;;8.35;5.88;;;;;;;8.83;93.64;101433.41;4987016;28;20692;-52
2021/10/14 01:28:33;;;;;;;8.63;5.50;;;;;;;8.76;93.75;101433.59;4987486;28;20073;-53
2021/10/14 01:31:00;;;;;;;9.63;6.22;;;;;;;8.78;93.90;101429.13;4996297;28;20412;-53
2021/10/14 01:33:30;;;;;;;9.95;6.38;;;;;;;8.81;94.00;101428.22;4992086;28;20053;-52
2021/10/14 01:35:57;;;;;;;9.63;6.20;;;;;;;8.90;93.57;101429.75;5000888;28;20049;-54
2021/10/14 01:38:24;;;;;;;10.60;6.40;;;;;;;8.87;93.30;101428.03;4985697;28;20054;-53
2021/10/14 01:40:50;;;;;;;8.30;6.07;;;;;;;8.87;93.30;101430.69;4993243;28;20438;-53
2021/10/14 01:43:17;;;;;;;10.45;6.32;;;;;;;8.88;93.08;101421.00;4987671;28;20050;-53
2021/10/14 01:45:43;;;;;;;9.95;6.05;;;;;;;8.84;92.93;101424.59;4993856;28;20446;-54
2021/10/14 01:48:10;;;;;;;12.10;7.03;;;;;;;8.78;93.13;101420.34;4984533;28;20058;-52
2021/10/14 01:50:36;;;;;;;11.48;6.32;;;;;;;8.77;93.38;101430.03;4983573;28;20134;-55
2021/10/14 01:53:03;;;;;;;12.63;6.55;;;;;;;8.74;93.55;101424.81;4986805;28;20038;-54
2021/10/14 01:55:29;;;;;;;11.93;7.03;;;;;;;8.70;94.00;101415.22;4990250;28;20050;-54
2021/10/14 01:57:56;;;;;;;12.30;6.57;;;;;;;8.70;93.83;101417.88;4984602;28;20054;-54
2021/10/14 02:00:22;;;;;;;10.25;6.43;;;;;;;8.70;93.81;101417.00;5002040;28;20057;-53
2021/10/14 02:02:49;;;;;;;13.52;6.57;;;;;;;8.69;94.35;101404.69;4986696;28;20060;-53
2021/10/14 02:05:15;;;;;;;11.45;6.32;;;;;;;8.74;93.70;101408.09;4986671;28;20037;-55
2021/10/14 02:07:42;;;;;;;11.40;6.75;;;;;;;8.62;93.86;101388.16;4983124;28;20411;-54
2021/10/14 02:10:09;;;;;;;13.93;6.78;;;;;;;8.73;93.84;101417.81;4983943;28;20054;-52
2021/10/14 02:12:36;;;;;;;8.95;6.15;;;;;;;8.74;93.61;101408.09;4988184;28;20075;-54
2021/10/14 02:15:03;;;;;;;9.73;6.03;;;;;;;8.76;93.60;101404.53;4989537;28;20045;-53
2021/10/14 02:17:30;;;;;;;12.18;6.63;;;;;;;8.75;93.86;101405.44;4981393;28;20069;-52
2021/10/14 02:19:56;;;;;;;10.07;6.68;;;;;;;8.73;93.88;101406.38;4988536;28;20048;-52
2021/10/14 02:22:23;;;;;;;12.68;7.22;;;;;;;8.79;93.12;101409.75;4990633;28;20048;-56
2021/10/14 02:24:49;;;;;;;12.25;6.60;;;;;;;8.78;92.79;101409.78;4985498;28;20046;-52
2021/10/14 02:27:16;;;;;;;11.13;6.72;;;;;;;8.74;93.05;101406.34;4983032;28;20711;-56
2021/10/14 02:29:42;;;;;;;8.48;6.28;;;;;;;8.71;93.23;101409.03;4987383;28;20061;-52
2021/10/14 02:32:09;;;;;;;10.80;7.30;;;;;;;8.72;93.76;101413.41;4983836;28;20038;-52
2021/10/14 02:34:35;;;;;;;10.73;6.80;;;;;;;8.73;93.19;101401.97;4987628;28;20050;-52
2021/10/14 02:37:01;;;;;;;8.77;6.82;;;;;;;8.70;93.53;101409.06;4980232;28;20405;-54
2021/10/14 02:39:28;;;;;;;13.60;8.38;;;;;;;8.64;93.57;101404.81;4988487;28;20061;-53
2021/10/14 02:41:54;;;;;;;10.35;6.45;;;;;;;8.69;93.93;101404.69;4996292;28;20045;-52
2021/10/14 02:44:21;;;;;;;12.18;7.07;;;;;;;8.65;93.61;101409.19;4996442;28;20042;-54
2021/10/14 02:46:47;;;;;;;12.57;7.68;;;;;;;8.58;94.04;101402.31;4989446;28;20050;-53
2021/10/14 02:49:14;;;;;;;14.07;8.15;;;;;;;8.58;94.06;101407.59;4985111;28;20049;-54
2021/10/14 02:51:40;;;;;;;12.60;7.18;;;;;;;8.53;94.07;101406.81;4990657;28;20049;-54
2021/10/14 02:54:07;;;;;;;9.95;7.28;;;;;;;8.51;94.39;101403.34;4992713;28;20060;-53
2021/10/14 02:56:33;;;;;;;12.35;7.50;;;;;;;8.65;94.56;101410.97;4983316;28;20046;-54
2021/10/14 02:59:00;;;;;;;10.10;6.65;;;;;;;8.60;94.24;101413.72;4983504;28;20049;-53
2021/10/14 03:01:26;;;;;;;11.77;7.05;;;;;;;8.58;94.34;101415.50;4983895;28;20047;-54
2021/10/14 03:03:53;;;;;;;10.57;6.95;;;;;;;8.56;94.60;101409.41;4989782;28;20053;-56
2021/10/14 03:06:20;;;;;;;14.13;7.10;;;;;;;8.56;94.70;101413.81;4988793;28;20504;-53
2021/10/14 03:08:46;;;;;;;12.48;7.10;;;;;;;8.57;94.58;101421.69;4987288;28;20057;-53
2021/10/14 03:11:13;;;;;;;10.95;7.03;;;;;;;8.57;95.19;101411.13;4985788;28;20042;-53
2021/10/14 03:13:39;;;;;;;12.85;7.15;;;;;;;8.56;95.02;101417.31;4985641;28;20054;-52
2021/10/14 03:16:06;;;;;;;12.32;7.28;;;;;;;8.59;95.58;101411.09;4991851;28;20050;-52
2021/10/14 03:18:33;;;;;;;9.63;6.47;;;;;;;8.61;95.50;101407.53;4981091;28;20371;-53
2021/10/14 03:21:00;;;;;;;9.57;6.72;;;;;;;8.62;95.41;101403.13;4983871;28;20057;-53
2021/10/14 03:23:26;;;;;;;13.65;6.80;;;;;;;8.63;95.06;101403.09;4988245;28;20065;-53
2021/10/14 03:25:53;;;;;;;12.02;7.40;;;;;;;8.66;94.32;101404.75;4999214;28;20049;-55
2021/10/14 03:28:20;;;;;;;12.85;7.80;;;;;;;8.67;94.95;101401.22;4978126;28;20060;-53
2021/10/14 03:30:46;;;;;;;11.70;7.90;;;;;;;8.64;94.81;101396.91;4988027;28;20053;-55
2021/10/14 03:33:14;;;;;;;13.00;7.85;;;;;;;8.61;95.11;101391.69;4984769;28;20049;-52
2021/10/14 03:35:41;;;;;;;12.95;7.55;;;;;;;8.63;94.85;101405.72;4983747;28;20050;-54
2021/10/14 03:38:07;;;;;;;10.68;7.47;;;;;;;8.61;94.71;101396.97;4980921;28;20053;-52
2021/10/14 03:40:34;;;;;;;12.00;8.10;;;;;;;8.61;94.99;101396.97;4982638;28;20078;-53
2021/10/14 03:43:01;;;;;;;15.23;8.45;;;;;;;8.65;94.89;101403.06;4991083;28;20046;-53
2021/10/14 03:45:27;;;;;;;10.23;7.63;;;;;;;8.60;94.65;101402.28;4991987;28;20399;-53
2021/10/14 03:47:54;;;;;;;15.38;8.43;;;;;;;8.64;94.87;101412.75;4980366;28;20053;-55
2021/10/14 03:50:20;;;;;;;12.32;7.85;;;;;;;8.63;95.22;101418.94;4988645;28;20582;-54
2021/10/14 03:52:46;;;;;;;14.15;8.40;;;;;;;8.65;94.89;101413.63;4988345;28;20748;-55
2021/10/14 03:55:13;;;;;;;15.65;8.40;;;;;;;8.66;94.41;101420.59;4986141;28;20046;-53
2021/10/14 03:57:39;;;;;;;15.52;8.95;;;;;;;8.62;94.92;101422.47;4981199;28;20054;-53
2021/10/14 04:00:07;;;;;;;15.07;8.85;;;;;;;8.61;95.06;101423.38;4991420;28;20046;-53
2021/10/14 04:02:34;;;;;;;14.10;8.65;;;;;;;8.58;95.19;101420.78;4984786;28;20056;-53
2021/10/14 04:05:02;;;;;;;12.85;8.95;;;;;;;8.59;95.51;101419.88;4989748;28;20064;-53
2021/10/14 04:07:28;;;;;;;11.52;8.30;;;;;;;8.47;95.88;101390.28;4992490;28;20064;-53
2021/10/14 04:09:55;;;;;;;15.65;9.25;;;;;;;8.55;96.06;101412.94;4983677;28;20660;-54
2021/10/14 04:12:22;;;;;;;16.23;9.32;;;;;;;8.52;96.09;101407.72;4985133;28;20154;-57
2021/10/14 04:14:48;;;;;;;12.98;8.60;;;;;;;8.53;96.13;101398.91;4984654;28;20050;-55
2021/10/14 04:17:15;;;;;;;14.18;8.82;;;;;;;8.52;96.29;101406.84;4981316;28;20081;-52
2021/10/14 04:19:41;;;;;;;13.25;8.70;;;;;;;8.51;96.29;101405.09;4993272;28;20066;-53
2021/10/14 04:22:08;;;;;;;14.23;9.15;;;;;;;8.49;96.62;101397.25;4997583;28;20046;-53
2021/10/14 04:24:34;;;;;;;13.50;8.32;;;;;;;8.55;97.05;101409.44;4986363;28;20054;-54
2021/10/14 04:27:01;;;;;;;14.07;9.48;;;;;;;8.57;96.76;101411.13;4987235;28;20092;-54
2021/10/14 04:29:28;;;;;;;17.77;10.02;;;;;;;8.58;96.75;101412.88;4983628;28;20060;-54
2021/10/14 04:31:54;;;;;;;12.30;9.20;;;;;;;8.61;96.59;101404.03;4982944;28;20062;-54
2021/10/14 04:34:21;;;;;;;15.05;9.40;;;;;;;8.64;96.60;101403.97;4983459;28;20049;-59
2021/10/14 04:36:48;;;;;;;16.42;10.07;;;;;;;8.67;96.60;101403.84;4983147;28;20726;-53
2021/10/14 04:39:15;;;;;;;13.27;8.30;;;;;;;8.69;96.15;101399.41;4983372;28;20092;-53
2021/10/14 04:41:43;;;;;;;14.38;8.55;;;;;;;8.73;95.66;101401.09;4981198;28;20535;-56
2021/10/14 04:44:09;;;;;;;12.27;8.25;;;;;;;8.75;95.73;101401.94;4986053;28;20050;-54
2021/10/14 04:46:36;;;;;;;12.40;8.45;;;;;;;8.70;95.49;101399.38;4982818;28;20431;-53
2021/10/14 04:49:03;;;;;;;11.23;8.38;;;;;;;8.71;95.69;101403.75;4982320;28;20045;-53
2021/10/14 04:51:29;;;;;;;15.40;8.55;;;;;;;8.73;95.62;101395.81;4986483;28;20050;-52
2021/10/14 04:53:56;;;;;;;12.45;8.70;;;;;;;8.70;95.46;101402.03;4996215;28;20049;-53
2021/10/14 04:56:22;;;;;;;12.80;8.43;;;;;;;8.71;95.25;101400.25;4981393;28;20061;-53
2021/10/14 04:58:49;;;;;;;12.43;8.68;;;;;;;8.63;95.58;101384.59;4981604;28;20042;-52
2021/10/14 05:01:15;;;;;;;13.70;8.95;;;;;;;8.71;95.21;101397.63;4984811;28;20058;-53
2021/10/14 05:03:43;;;;;;;12.23;8.52;;;;;;;8.71;95.17;101392.34;4984294;28;20379;-54
2021/10/14 05:06:09;;;;;;;13.30;8.85;;;;;;;8.71;95.04;101394.97;4981358;28;20045;-53
2021/10/14 05:08:36;;;;;;;10.88;8.43;;;;;;;8.71;94.89;101398.47;4982365;28;20508;-54
2021/10/14 05:11:04;;;;;;;13.50;8.68;;;;;;;8.67;95.22;101403.84;4983058;28;20419;-53
2021/10/14 05:13:31;;;;;;;13.45;9.20;;;;;;;8.61;95.54;101396.97;4981366;28;20415;-53
2021/10/14 05:15:57;;;;;;;12.50;8.90;;;;;;;8.60;95.84;101402.28;4987145;28;20040;-53
2021/10/14 05:18:24;;;;;;;13.07;8.90;;;;;;;8.58;96.25;101402.31;4977224;28;20062;-53
2021/10/14 05:20:50;;;;;;;13.45;9.50;;;;;;;8.60;95.91;101410.19;4983765;28;20053;-53
2021/10/14 05:23:17;;;;;;;17.35;9.15;;;;;;;8.57;96.04;101399.72;4985377;28;20053;-55
2021/10/14 05:25:43;;;;;;;13.93;8.60;;;;;;;8.53;96.41;101396.25;5002831;28;20053;-55
2021/10/14 05:28:10;;;;;;;13.45;8.55;;;;;;;8.53;96.72;101393.63;4982158;28;20463;-53
2021/10/14 05:30:36;;;;;;;11.95;8.60;;;;;;;8.59;96.61;101395.25;4983064;28;20049;-52
2021/10/14 05:33:03;;;;;;;16.10;9.18;;;;;;;8.61;96.55;101401.38;4985291;28;20072;-53
2021/10/14 05:35:35;;;;;;;16.30;9.50;;;;;;;8.59;96.68;101398.78;4991458;28;20100;-54
2021/10/14 05:38:02;;;;;;;14.80;9.20;;;;;;;8.58;96.52;101391.75;4991655;28;20435;-52
2021/10/14 05:40:29;;;;;;;15.27;9.07;;;;;;;8.61;96.72;101396.97;4984129;28;20053;-52
2021/10/14 05:42:55;;;;;;;14.02;8.35;;;;;;;8.62;96.10;101390.78;4986477;28;20514;-52
2021/10/14 05:45:22;;;;;;;13.13;8.90;;;;;;;8.61;96.39;101393.47;4994698;28;20046;-52
2021/10/14 05:47:48;;;;;;;14.52;9.20;;;;;;;8.61;96.42;101396.09;5004883;28;20046;-53
2021/10/14 05:50:15;;;;;;;16.17;9.45;;;;;;;8.62;96.84;101400.47;4982423;28;20054;-53
2021/10/14 05:52:41;;;;;;;13.25;7.95;;;;;;;8.70;96.19;101388.81;4987351;28;20046;-53
2021/10/14 05:55:08;;;;;;;13.30;8.93;;;;;;;8.70;95.98;101390.59;4995038;28;20046;-54
2021/10/14 05:57:34;;;;;;;12.57;8.65;;;;;;;8.69;95.87;101399.41;4990254;28;20356;-53
2021/10/14 06:00:01;;;;;;;11.32;8.68;;;;;;;8.71;96.25;101401.13;4985899;28;20054;-54
2021/10/14 06:02:27;;;;;;;15.70;8.70;;;;;;;8.73;97.09;101393.16;4991579;28;20053;-54
2021/10/14 06:04:54;;;;;;;13.65;9.07;;;;;;;8.76;96.50;101387.81;4991368;28;20107;-55
2021/10/14 06:07:21;;;;;;;13.20;9.02;;;;;;;8.75;95.95;101384.31;4988070;28;20049;-53
2021/10/14 06:09:47;;;;;;;14.35;8.82;;;;;;;8.78;96.05;101400.09;4985582;28;20054;-53
2021/10/14 06:12:14;;;;;;;17.67;9.00;;;;;;;8.84;94.98;101398.19;4987978;28;20050;-53
2021/10/14 06:14:41;;;;;;;11.77;8.40;;;;;;;8.85;94.71;101405.22;4984420;28;20048;-55
2021/10/14 06:17:07;;;;;;;12.20;8.68;;;;;;;8.81;94.56;101408.84;4989845;28;20038;-54
2021/10/14 06:19:34;;;;;;;13.65;9.32;;;;;;;8.81;94.92;101399.16;4983800;28;20051;-54
2021/10/14 06:22:00;;;;;;;13.90;8.80;;;;;;;8.81;95.16;101404.44;4991744;28;20510;-53
2021/10/14 06:24:27;;;;;;;11.68;8.40;;;;;;;8.81;95.20;101409.72;4990723;28;20081;-53
2021/10/14 06:26:53;;;;;;;14.18;9.27;;;;;;;8.81;95.31;101409.72;4992768;28;20058;-54
2021/10/14 06:29:20;;;;;;;16.67;8.75;;;;;;;8.84;95.53;101411.38;4988066;28;20056;-53
2021/10/14 06:31:46;;;;;;;14.32;9.05;;;;;;;8.83;95.46;101405.25;4985071;28;20786;-54
2021/10/14 06:34:13;;;;;;;15.68;8.90;;;;;;;8.87;95.42;101411.31;4985997;28;20518;-53
2021/10/14 06:37:04;;;;;;;12.55;9.18;;;;;;;8.90;95.24;101413.91;4995380;28;20047;-53
2021/10/14 06:39:30;;;;;;;14.82;9.85;;;;;;;8.90;94.87;101404.19;4987280;28;20053;-54
2021/10/14 06:42:00;;;;;;;27.35;9.85;;;;;;;8.94;96.13;101405.00;4988394;28;20050;-54
2021/10/14 06:44:27;;;;;;;15.52;9.55;;;;;;;9.01;95.19;101412.72;4987586;28;20078;-52
2021/10/14 06:46:54;;;;;;;22.70;9.90;;;;;;;9.02;94.18;101411.81;4991447;28;20043;-54
2021/10/14 06:49:20;;;;;;;17.63;10.15;;;;;;;8.99;94.17;101409.25;4987485;28;20042;-54
2021/10/14 06:51:46;;;;;;;14.73;9.30;;;;;;;9.02;94.25;101410.94;4986416;28;20482;-54
2021/10/14 06:54:14;;;;;;;13.35;9.00;;;;;;;9.05;93.29;101411.75;4987743;28;20056;-53
2021/10/14 06:56:40;;;;;;;16.98;9.32;;;;;;;9.05;93.26;101419.69;4984519;28;20488;-53
2021/10/14 06:59:07;;;;;;;26.27;11.02;;;;;;;9.04;93.88;101412.66;4978772;28;20137;-59
2021/10/14 07:01:34;;;;;;;15.85;9.35;;;;;;;9.15;95.89;101415.91;4988412;28;20050;-53
2021/10/14 07:04:01;;;;;;;19.20;9.45;;;;;;;9.17;94.02;101412.34;4984003;28;20124;-52
2021/10/14 07:06:28;;;;;;;33.95;11.48;;;;;;;9.26;95.86;101418.28;4987169;28;20046;-52
2021/10/14 07:08:54;;;;;;;13.75;9.00;;;;;;;9.31;94.12;101416.38;4980972;28;20053;-53
2021/10/14 07:11:21;;;;;;;16.50;9.70;;;;;;;9.25;93.29;101416.56;4981777;28;20046;-54
2021/10/14 07:13:48;;;;;;;20.65;9.63;;;;;;;9.18;92.98;101419.38;4981766;28;20491;-52
2021/10/14 07:16:14;;;;;;;16.85;9.48;;;;;;;9.10;93.19;101412.53;4985024;28;20053;-53
2021/10/14 07:18:42;;;;;;;18.17;9.52;;;;;;;9.03;93.40;101412.69;4985171;28;20050;-53
2021/10/14 07:21:09;;;;;;;15.93;9.68;;;;;;;9.04;93.37;101410.00;4986049;28;20048;-53
2021/10/14 07:23:35;;;;;;;14.18;9.55;;;;;;;9.08;93.40;101403.75;4983892;28;20046;-58
2021/10/14 07:26:02;;;;;;;12.38;9.30;;;;;;;9.13;93.47;101406.25;4984118;28;20057;-53
2021/10/14 07:28:29;;;;;;;15.57;9.52;;;;;;;9.18;93.42;101408.81;4981335;28;20053;-53
2021/10/14 07:30:55;;;;;;;12.68;9.10;;;;;;;9.20;93.56;101413.16;4980581;28;20080;-53
2021/10/14 07:33:23;;;;;;;14.60;9.50;;;;;;;9.26;93.45;101415.66;4985353;28;20052;-51
2021/10/14 07:35:49;;;;;;;14.77;9.48;;;;;;;9.33;92.29;101416.34;4984786;28;20046;-52
2021/10/14 07:38:16;;;;;;;13.00;9.13;;;;;;;9.34;91.90;101413.66;4982970;28;20530;-52
2021/10/14 07:40:43;;;;;;;18.35;9.82;;;;;;;9.15;92.02;101388.59;4977462;28;20112;-52
2021/10/14 07:43:14;;;;;;;14.18;9.48;;;;;;;9.23;92.25;101418.38;4987135;28;20053;-54
2021/10/14 07:45:43;;;;;;;15.70;9.73;;;;;;;9.24;92.44;101414.81;4983178;28;20064;-53
2021/10/14 07:48:10;;;;;;;14.98;9.88;;;;;;;9.25;92.44;101413.03;4981390;28;20037;-53
2021/10/14 07:50:37;;;;;;;15.10;9.80;;;;;;;9.20;93.11;101409.63;4980010;28;20042;-52
2021/10/14 07:53:16;;;;;;;16.35;10.43;;;;;;;9.25;92.74;101413.03;4983053;28;20108;-53
2021/10/14 07:55:45;;;;;;;16.70;10.05;;;;;;;9.26;92.98;101418.28;4981362;28;20423;-53
2021/10/14 07:58:11;;;;;;;15.25;10.38;;;;;;;9.31;92.99;101403.16;4980151;28;20046;-53
2021/10/14 08:00:39;;;;;;;17.23;9.73;;;;;;;9.40;92.46;101405.59;4981407;28;20050;-53
2021/10/14 08:03:06;;;;;;;15.82;9.13;;;;;;;9.48;91.68;101408.88;4983219;28;20386;-52
2021/10/14 08:05:33;;;;;;;13.80;9.27;;;;;;;9.50;91.47;101411.50;4984725;28;20140;-53
2021/10/14 08:08:01;;;;;;;14.38;9.05;;;;;;;9.58;91.27;101411.31;4980606;28;20325;-54
2021/10/14 08:10:28;;;;;;;13.93;9.15;;;;;;;9.59;91.07;101418.31;4996243;28;22227;-54
2021/10/14 08:12:55;;;;;;;16.52;9.27;;;;;;;9.58;91.06;101408.66;4977479;28;20483;-53
2021/10/14 08:15:22;;;;;;;14.20;9.63;;;;;;;9.66;91.23;101406.66;4979458;28;20061;-51
2021/10/14 08:17:49;;;;;;;16.00;10.20;;;;;;;9.73;90.12;101411.75;4981782;28;20046;-52
2021/10/14 08:20:16;;;;;;;18.60;9.95;;;;;;;9.70;89.86;101413.59;4980193;28;20065;-52
2021/10/14 08:22:43;;;;;;;15.25;10.02;;;;;;;9.65;89.81;101402.28;4981286;28;20046;-52
2021/10/14 08:25:12;;;;;;;15.43;9.95;;;;;;;9.64;90.28;101405.81;4985124;28;20064;-52
2021/10/14 08:27:41;;;;;;;13.98;9.25;;;;;;;9.70;90.70;101409.19;4983960;28;20495;-52
2021/10/14 08:30:08;;;;;;;12.43;9.18;;;;;;;9.75;90.00;101417.00;4975512;28;20065;-54
2021/10/14 08:32:35;;;;;;;15.68;10.20;;;;;;;9.83;89.19;101425.59;4987310;28;20050;-52
2021/10/14 08:35:01;;;;;;;17.08;10.95;;;;;;;9.77;91.01;101394.00;4981462;28;20449;-53
2021/10/14 08:37:29;;;;;;;24.85;14.80;;;;;;;9.92;89.75;101412.09;4984105;28;20053;-53
2021/10/14 08:39:56;;;;;;;15.73;9.57;;;;;;;9.97;89.68;101418.13;4976365;28;20298;-53
2021/10/14 08:42:22;;;;;;;57.70;15.85;;;;;;;10.08;91.77;101418.69;4987315;28;20039;-52
2021/10/14 08:44:49;;;;;;;40.70;11.82;;;;;;;10.24;92.38;101412.97;4981750;28;20617;-53
2021/10/14 08:47:16;;;;;;;14.80;8.40;;;;;;;10.21;88.27;101416.59;4987207;28;20042;-53
2021/10/14 08:49:44;;;;;;;13.50;8.90;;;;;;;10.14;87.73;101415.00;4982050;28;20054;-53
2021/10/14 08:52:12;;;;;;;16.20;9.32;;;;;;;10.19;88.89;101408.72;4985646;28;20129;-53
2021/10/14 08:54:40;;;;;;;15.57;9.20;;;;;;;10.31;86.80;101414.53;4982009;28;20041;-53
2021/10/14 08:57:07;;;;;;;14.13;9.13;;;;;;;10.37;86.73;101412.59;4988046;28;22099;-52
2021/10/14 08:59:34;;;;;;;17.30;8.88;;;;;;;10.43;86.17;101416.81;4985143;28;20050;-53
2021/10/14 09:02:10;;;;;;;16.35;9.13;;;;;;;10.53;85.70;101421.81;4990227;28;20410;-54
2021/10/14 09:04:55;;;;;;;13.65;9.05;;;;;;;10.59;85.38;101418.09;4989651;28;20081;-52
2021/10/14 09:07:22;;;;;;;11.90;8.40;;;;;;;10.61;84.73;101416.25;4988137;28;20046;-53
2021/10/14 09:09:50;;;;;;;44.35;10.95;;;;;;;10.63;84.98;101414.44;4983459;28;20042;-53
2021/10/14 09:12:19;;;;;;;15.85;8.48;;;;;;;10.67;84.60;101407.28;4986705;28;20073;-53
2021/10/14 09:14:54;;;;;;;15.30;7.93;;;;;;;10.74;84.39;101406.16;4990832;28;20050;-53
2021/10/14 09:17:48;;;;;;;66.28;11.45;;;;;;;10.83;85.77;101412.03;4987341;28;20053;-53
2021/10/14 09:20:20;;;;;;;14.85;7.90;;;;;;;10.99;83.37;101407.13;4986187;28;20045;-53
2021/10/14 09:23:00;;;;;;;12.20;7.90;;;;;;;11.02;83.35;101411.44;4990194;28;20125;-53
2021/10/14 09:25:47;;;;;;;10.05;7.68;;;;;;;10.96;83.30;101390.44;4987077;28;20060;-58
2021/10/14 09:28:18;;;;;;;16.55;8.77;;;;;;;11.02;82.53;101387.59;4986758;28;20411;-52
2021/10/14 09:30:50;;;;;;;;;;;;;;;11.11;82.18;101395.22;4984383;28;20048;-53
2021/10/14 09:33:40;;;;;;;12.68;8.20;;;;;;;11.19;82.08;101398.47;4992541;28;19925;-52
2021/10/14 09:36:10;;;;;;;12.35;8.68;;;;;;;11.19;81.96;101402.00;4998906;28;20046;-53
2021/10/14 09:38:37;;;;;;;13.35;8.93;;;;;;;11.14;82.00;101396.00;4989055;28;20046;-55
2021/10/14 09:41:06;;;;;;;16.77;9.52;;;;;;;11.04;82.80;101385.72;4983444;28;20049;-53
2021/10/14 09:43:32;;;;;;;11.57;8.07;;;;;;;11.16;81.58;101406.56;4999544;28;20057;-52
2021/10/14 09:45:59;;;;;;;41.35;13.55;;;;;;;11.16;82.54;101402.13;4991853;28;20053;-53
2021/10/14 09:48:26;;;;;;;17.80;9.25;;;;;;;11.21;82.33;101407.25;4991781;28;20058;-52
2021/10/14 09:50:53;;;;;;;17.23;8.45;;;;;;;11.18;81.90;101413.53;4986466;28;20038;-52
2021/10/14 09:53:22;;;;;;;12.73;8.02;;;;;;;11.17;82.29;101400.34;4988254;28;20511;-52
2021/10/14 09:55:50;;;;;;;16.13;9.40;;;;;;;11.25;82.07;101398.28;4988009;28;20057;-52
2021/10/14 09:58:17;;;;;;;12.38;8.77;;;;;;;11.34;82.17;101408.56;4986398;28;20043;-53
2021/10/14 10:00:46;;;;;;;15.60;8.85;;;;;;;11.38;81.38;101412.84;4984398;28;20053;-54
2021/10/14 10:03:21;;;;;;;10.43;7.72;;;;;;;11.38;81.14;101415.50;4989721;28;20042;-52
2021/10/14 10:05:50;;;;;;;13.95;8.05;;;;;;;11.25;81.71;101406.25;4971651;28;20046;-53
2021/10/14 10:08:26;;;;;;;13.30;8.18;;;;;;;11.20;82.18;101395.78;4987208;28;20057;-52
2021/10/14 10:10:55;;;;;;;14.65;8.32;;;;;;;11.23;81.98;101390.38;4981256;28;20057;-53
2021/10/14 10:13:23;;;;;;;17.65;9.50;;;;;;;11.34;81.15;101395.31;4987546;28;20400;-52
2021/10/14 10:15:49;;;;;;;14.23;8.18;;;;;;;11.39;81.20;101381.91;4984009;28;20046;-53
2021/10/14 10:18:28;;;;;;;18.00;10.05;;;;;;;11.60;80.24;101395.28;4985371;28;20046;-55
2021/10/14 10:20:57;;;;;;;12.30;8.30;;;;;;;11.66;79.51;101388.88;4983788;28;20443;-53
2021/10/14 10:23:42;;;;;;;13.57;8.53;;;;;;;11.67;79.86;101384.44;4984170;28;20050;-58
2021/10/14 10:26:36;;;;;;;15.20;8.43;;;;;;;11.74;79.93;101393.94;4987428;28;20910;-53
2021/10/14 10:29:03;;;;;;;13.23;7.97;;;;;;;11.84;80.00;101392.69;4995185;28;20038;-53
2021/10/14 10:31:56;;;;;;;14.98;8.02;;;;;;;11.86;79.12;101390.84;4981025;28;20712;-53
2021/10/14 10:34:43;;;;;;;12.85;7.68;;;;;;;11.76;79.35;101393.00;4986917;28;20312;-53
2021/10/14 10:37:25;;;;;;;14.10;8.23;;;;;;;11.73;79.42;101393.06;4988137;28;20046;-53
2021/10/14 10:39:56;;;;;;;11.73;7.43;;;;;;;11.75;78.98;101387.69;4967005;28;20058;-52
2021/10/14 10:42:36;;;;;;;10.50;7.70;;;;;;;11.81;79.61;101396.31;4988038;28;20042;-52
2021/10/14 10:45:24;;;;;;;69.38;11.40;;;;;;;11.89;80.30;101396.06;4984585;28;20049;-54
2021/10/14 10:47:53;;;;;;;31.08;9.85;;;;;;;12.08;80.83;101396.25;4994276;28;20068;-60
2021/10/14 10:50:22;;;;;;;16.70;7.95;;;;;;;12.17;78.57;101391.44;4986112;28;20053;-51
2021/10/14 10:53:00;;;;;;;11.45;7.47;;;;;;;12.20;78.21;101401.97;4996306;28;20050;-53
2021/10/14 10:55:27;;;;;;;15.63;9.32;;;;;;;12.20;77.84;101396.66;4995993;28;20054;-52
2021/10/14 10:57:55;;;;;;;13.27;7.30;;;;;;;12.21;77.42;101390.41;5001476;28;20050;-57
2021/10/14 11:00:23;;;;;;;12.02;7.68;;;;;;;12.24;77.72;101385.00;4998034;28;20053;-53
2021/10/14 11:03:28;;;;;;;12.30;7.60;;;;;;;12.20;77.69;101390.47;5001577;28;20050;-53
2021/10/14 11:06:08;;;;;;;11.50;6.88;;;;;;;12.16;78.57;101386.19;4980322;28;20073;-53
2021/10/14 11:08:35;;;;;;;12.48;7.38;;;;;;;12.10;78.80;101374.03;4987835;28;20140;-53
2021/10/14 11:11:06;;;;;;;11.40;7.30;;;;;;;12.08;77.73;101378.53;4984599;28;20505;-53
2021/10/14 11:13:36;;;;;;;13.07;7.18;;;;;;;11.98;78.27;101358.53;4985192;28;20732;-52
2021/10/14 11:16:07;;;;;;;13.35;7.05;;;;;;;12.08;78.11;101375.00;4985561;28;20073;-51
2021/10/14 11:18:35;;;;;;;10.82;5.85;;;;;;;12.13;76.95;101379.22;4987477;28;20112;-53
2021/10/14 11:21:04;;;;;;;12.18;6.55;;;;;;;12.14;77.46;101369.44;4981371;28;20054;-52
2021/10/14 11:23:39;;;;;;;9.48;6.57;;;;;;;12.18;77.32;101363.13;4983076;28;20517;-52
2021/10/14 11:26:16;;;;;;;12.95;7.15;;;;;;;12.21;77.24;101358.56;4984553;28;20080;-53
2021/10/14 11:29:24;;;;;;;12.75;6.82;;;;;;;12.23;76.84;101356.72;4982487;28;20054;-53